createdAt,value
2018-08-30T00:02:43.781Z,9.93
2018-08-30T00:05:49.142Z,13.07
2018-08-30T00:08:54.526Z,13.67
2018-08-30T00:12:00.034Z,11.63
2018-08-30T00:15:06.163Z,16.83
2018-08-30T00:18:11.898Z,12.07
2018-08-30T00:21:17.457Z,13.87
2018-08-30T00:24:22.859Z,13.80
2018-08-30T00:27:28.257Z,12.10
2018-08-30T00:30:33.702Z,13.97
2018-08-30T00:33:39.230Z,15.47
2018-08-30T00:36:44.633Z,20.90
2018-08-30T00:39:50.075Z,17.97
2018-08-30T00:42:55.446Z,21.27
2018-08-30T00:46:00.833Z,15.67
2018-08-30T00:49:06.215Z,19.83
2018-08-30T00:52:11.598Z,17.00
2018-08-30T00:55:16.962Z,17.70
2018-08-30T00:58:22.331Z,20.10
2018-08-30T01:01:28.118Z,19.80
2018-08-30T01:04:33.510Z,17.97
2018-08-30T01:07:38.864Z,16.27
2018-08-30T01:10:44.510Z,18.60
2018-08-30T01:13:49.876Z,18.63
2018-08-30T01:16:55.288Z,16.23
2018-08-30T01:20:00.729Z,16.80
2018-08-30T01:23:06.470Z,17.20
2018-08-30T01:26:11.869Z,18.80
2018-08-30T01:29:17.342Z,17.67
2018-08-30T01:32:22.721Z,16.60
2018-08-30T01:35:28.624Z,15.10
2018-08-30T01:38:34.389Z,14.63
2018-08-30T01:41:41.360Z,18.60
2018-08-30T01:44:46.751Z,16.70
2018-08-30T01:47:52.466Z,15.60
2018-08-30T01:50:57.961Z,16.83
2018-08-30T01:54:03.349Z,16.30
2018-08-30T01:57:08.762Z,15.73
2018-08-30T02:00:14.232Z,13.77
2018-08-30T02:03:19.728Z,17.47
2018-08-30T02:06:25.700Z,15.47
2018-08-30T02:09:31.249Z,13.50
2018-08-30T02:12:36.625Z,13.43
2018-08-30T02:15:42.014Z,15.13
2018-08-30T02:18:47.409Z,15.73
2018-08-30T02:21:52.818Z,16.23
2018-08-30T02:24:58.225Z,16.10
2018-08-30T02:28:03.614Z,14.43
2018-08-30T02:31:09.042Z,16.10
2018-08-30T02:34:14.442Z,14.90
2018-08-30T02:37:20.169Z,14.97
2018-08-30T02:40:25.650Z,15.20
2018-08-30T02:43:31.270Z,18.70
2018-08-30T02:46:36.650Z,18.17
2018-08-30T02:49:42.089Z,16.13
2018-08-30T02:52:47.442Z,16.90
2018-08-30T02:55:52.825Z,19.43
2018-08-30T02:58:58.678Z,16.53
2018-08-30T03:02:04.128Z,15.97
2018-08-30T03:05:09.578Z,19.73
2018-08-30T03:08:14.938Z,17.87
2018-08-30T03:11:20.433Z,19.53
2018-08-30T03:14:25.844Z,17.60
2018-08-30T03:17:31.213Z,19.90
2018-08-30T03:20:36.710Z,23.97
2018-08-30T03:23:42.126Z,17.30
2018-08-30T03:26:47.555Z,17.77
2018-08-30T03:29:53.006Z,16.47
2018-08-30T03:32:58.370Z,18.30
2018-08-30T03:36:03.749Z,17.20
2018-08-30T03:39:09.165Z,20.13
2018-08-30T03:42:14.530Z,17.93
2018-08-30T03:45:19.915Z,18.37
2018-08-30T03:48:25.281Z,17.83
2018-08-30T03:51:30.933Z,20.97
2018-08-30T03:54:36.483Z,22.10
2018-08-30T03:57:42.565Z,17.77
2018-08-30T04:00:48.083Z,19.27
2018-08-30T04:03:53.553Z,23.80
2018-08-30T04:06:59.521Z,16.90
2018-08-30T04:10:05.034Z,19.90
2018-08-30T04:13:10.414Z,21.90
2018-08-30T04:16:15.801Z,21.57
2018-08-30T04:19:21.246Z,18.17
2018-08-30T04:22:26.709Z,19.60
2018-08-30T04:25:32.090Z,20.67
2018-08-30T04:28:37.553Z,19.83
2018-08-30T04:31:54.615Z,18.47
2018-08-30T04:35:00.058Z,18.37
2018-08-30T04:38:07.669Z,19.47
2018-08-30T04:41:13.581Z,20.03
2018-08-30T04:44:18.968Z,20.93
2018-08-30T04:47:25.474Z,24.93
2018-08-30T04:50:31.109Z,20.67
2018-08-30T04:53:37.026Z,18.20
2018-08-30T04:56:45.822Z,19.03
2018-08-30T04:59:51.305Z,22.07
2018-08-30T05:02:57.030Z,21.70
2018-08-30T05:06:05.466Z,21.20
2018-08-30T05:09:12.126Z,22.30
2018-08-30T05:12:17.509Z,21.13
2018-08-30T05:15:23.214Z,19.93
2018-08-30T05:18:28.623Z,18.27
2018-08-30T05:21:34.350Z,17.10
2018-08-30T05:24:40.146Z,21.17
2018-08-30T05:27:45.961Z,16.43
2018-08-30T05:30:51.437Z,17.23
2018-08-30T05:33:56.802Z,17.93
2018-08-30T05:37:02.169Z,18.00
2018-08-30T05:40:08.207Z,18.47
2018-08-30T05:43:13.582Z,19.50
2018-08-30T05:46:19.006Z,19.03
2018-08-30T05:49:24.991Z,18.20
2018-08-30T05:52:30.477Z,17.20
2018-08-30T05:55:35.822Z,17.13
2018-08-30T05:58:41.226Z,18.23
2018-08-30T06:01:46.721Z,18.33
2018-08-30T06:04:52.363Z,16.17
2018-08-30T06:07:57.809Z,17.27
2018-08-30T06:11:03.242Z,15.00
2018-08-30T06:14:08.631Z,14.50
2018-08-30T06:17:14.014Z,13.43
2018-08-30T06:20:19.443Z,13.17
2018-08-30T06:23:24.834Z,13.53
2018-08-30T06:26:30.209Z,13.23
2018-08-30T06:29:35.643Z,15.30
2018-08-30T06:32:41.079Z,13.87
2018-08-30T06:35:46.595Z,13.93
2018-08-30T06:38:52.350Z,14.93
2018-08-30T06:41:57.969Z,16.80
2018-08-30T06:45:03.374Z,14.93
2018-08-30T06:48:08.745Z,14.43
2018-08-30T06:51:14.482Z,13.17
2018-08-30T06:54:19.885Z,14.97
2018-08-30T06:57:25.291Z,17.87
2018-08-30T07:00:30.889Z,15.93
2018-08-30T07:03:36.261Z,15.07
2018-08-30T07:06:41.617Z,18.00
2018-08-30T07:09:47.285Z,13.93
2018-08-30T07:12:54.910Z,15.30
2018-08-30T07:16:00.768Z,18.17
2018-08-30T07:19:06.566Z,13.83
2018-08-30T07:22:11.973Z,15.50
2018-08-30T07:25:17.778Z,14.17
2018-08-30T07:28:23.212Z,14.13
2018-08-30T07:31:28.832Z,13.27
2018-08-30T07:34:34.268Z,12.43
2018-08-30T07:37:39.916Z,15.60
2018-08-30T07:40:45.418Z,12.53
2018-08-30T07:43:50.926Z,14.70
2018-08-30T07:46:56.291Z,12.57
2018-08-30T07:50:01.803Z,12.40
2018-08-30T07:53:07.377Z,13.33
2018-08-30T07:56:12.762Z,16.20
2018-08-30T07:59:18.206Z,15.13
2018-08-30T08:02:23.580Z,12.97
2018-08-30T08:05:29.024Z,13.43
2018-08-30T08:08:34.422Z,14.40
2018-08-30T08:11:39.861Z,14.93
2018-08-30T08:14:45.251Z,16.47
2018-08-30T08:17:51.270Z,15.77
2018-08-30T08:20:56.652Z,14.20
2018-08-30T08:24:02.080Z,15.27
2018-08-30T08:27:07.825Z,13.57
2018-08-30T08:30:13.229Z,15.10
2018-08-30T08:33:18.626Z,14.73
2018-08-30T08:36:23.981Z,14.17
2018-08-30T08:39:30.096Z,18.77
2018-08-30T08:42:35.461Z,14.63
2018-08-30T08:45:40.857Z,14.73
2018-08-30T08:48:46.249Z,15.33
2018-08-30T08:51:51.633Z,15.83
2018-08-30T08:54:57.031Z,15.33
2018-08-30T08:58:02.417Z,17.67
2018-08-30T09:01:08.577Z,16.60
2018-08-30T09:04:13.982Z,16.77
2018-08-30T09:07:19.564Z,17.47
2018-08-30T09:10:25.595Z,16.63
2018-08-30T09:13:31.234Z,16.83
2018-08-30T09:16:37.609Z,16.97
2018-08-30T09:19:43.018Z,16.50
2018-08-30T09:22:48.489Z,18.43
2018-08-30T09:25:53.902Z,17.03
2018-08-30T09:28:59.312Z,16.80
2018-08-30T09:32:04.730Z,17.93
2018-08-30T09:35:10.130Z,18.53
2018-08-30T09:38:16.689Z,18.93
2018-08-30T09:41:22.221Z,16.77
2018-08-30T09:44:27.709Z,16.93
2018-08-30T09:47:33.089Z,16.67
2018-08-30T09:50:39.045Z,16.00
2018-08-30T09:53:44.444Z,15.63
2018-08-30T09:56:54.990Z,15.90
2018-08-30T10:00:00.609Z,13.87
2018-08-30T10:03:06.418Z,16.43
2018-08-30T10:06:11.838Z,15.63
2018-08-30T10:09:17.249Z,15.70
2018-08-30T10:12:22.613Z,15.17
2018-08-30T10:15:28.000Z,14.00
2018-08-30T10:18:33.395Z,13.50
2018-08-30T10:21:38.828Z,14.67
2018-08-30T10:24:44.785Z,13.10
2018-08-30T10:27:50.137Z,15.27
2018-08-30T10:30:55.570Z,12.70
2018-08-30T10:34:00.953Z,15.20
2018-08-30T10:37:06.627Z,14.87
2018-08-30T10:40:12.205Z,12.77
2018-08-30T10:43:17.558Z,13.13
2018-08-30T10:46:23.553Z,14.53
2018-08-30T10:49:29.032Z,15.37
2018-08-30T10:52:34.534Z,13.80
2018-08-30T10:55:40.279Z,15.97
2018-08-30T10:58:46.026Z,13.37
2018-08-30T11:01:51.498Z,14.50
2018-08-30T11:04:57.165Z,14.43
2018-08-30T11:08:02.705Z,14.97
2018-08-30T11:11:08.470Z,16.23
2018-08-30T11:14:13.826Z,13.57
2018-08-30T11:17:19.193Z,15.13
2018-08-30T11:20:24.666Z,15.27
2018-08-30T11:23:30.066Z,12.60
2018-08-30T11:26:35.557Z,12.07
2018-08-30T11:29:41.157Z,10.73
2018-08-30T11:32:46.550Z,11.47
2018-08-30T11:35:51.974Z,13.07
2018-08-30T11:38:57.368Z,9.37
2018-08-30T11:42:03.170Z,10.67
2018-08-30T11:45:09.433Z,10.33
2018-08-30T11:48:14.802Z,8.83
2018-08-30T11:51:20.226Z,9.93
2018-08-30T11:54:25.611Z,9.73
2018-08-30T11:57:31.026Z,8.17
2018-08-30T12:00:36.432Z,8.97
2018-08-30T12:03:44.926Z,7.97
2018-08-30T12:06:50.787Z,8.30
2018-08-30T12:09:56.846Z,8.00
2018-08-30T12:13:02.267Z,9.43
2018-08-30T12:16:07.669Z,12.73
2018-08-30T12:19:13.043Z,10.50
2018-08-30T12:22:18.502Z,9.87
2018-08-30T12:25:23.937Z,9.33
2018-08-30T12:28:30.035Z,8.77
2018-08-30T12:31:35.747Z,8.07
2018-08-30T12:34:41.311Z,7.93
2018-08-30T12:37:46.830Z,7.43
2018-08-30T12:40:52.434Z,7.03
2018-08-30T12:43:57.799Z,8.90
2018-08-30T12:47:03.437Z,8.33
2018-08-30T12:50:09.105Z,7.53
2018-08-30T12:53:14.721Z,7.57
2018-08-30T12:56:20.278Z,8.37
2018-08-30T12:59:31.094Z,8.37
2018-08-30T13:02:36.740Z,14.87
2018-08-30T13:05:42.392Z,6.23
2018-08-30T13:08:48.139Z,5.83
2018-08-30T13:11:53.807Z,5.90
2018-08-30T13:14:59.492Z,7.57
2018-08-30T13:18:05.451Z,6.53
2018-08-30T13:21:11.070Z,7.47
2018-08-30T13:24:16.726Z,9.50
2018-08-30T13:27:22.318Z,7.80
2018-08-30T13:30:28.185Z,7.00
2018-08-30T13:33:33.749Z,7.93
2018-08-30T13:36:39.208Z,9.77
2018-08-30T13:39:45.000Z,9.07
2018-08-30T13:42:50.611Z,9.03
2018-08-30T13:45:56.247Z,10.60
2018-08-30T13:49:02.458Z,11.37
2018-08-30T13:52:08.080Z,10.17
2018-08-30T13:55:14.182Z,10.87
2018-08-30T13:58:19.947Z,8.77
2018-08-30T14:01:25.664Z,9.60
2018-08-30T14:04:30.996Z,11.33
2018-08-30T14:07:36.683Z,8.73
2018-08-30T14:10:42.398Z,8.53
2018-08-30T14:13:47.988Z,9.57
2018-08-30T14:16:53.365Z,9.40
2018-08-30T14:19:58.834Z,10.73
2018-08-30T14:23:04.766Z,9.53
2018-08-30T14:26:10.234Z,9.83
2018-08-30T14:29:15.979Z,7.07
2018-08-30T14:32:21.459Z,9.87
2018-08-30T14:35:26.813Z,8.77
2018-08-30T14:38:32.193Z,11.97
2018-08-30T14:41:37.974Z,8.97
2018-08-30T14:44:43.494Z,9.97
2018-08-30T14:47:48.945Z,9.67
2018-08-30T14:50:54.850Z,9.07
2018-08-30T14:54:00.326Z,10.23
2018-08-30T14:57:06.545Z,6.60
2018-08-30T15:00:12.050Z,11.20
2018-08-30T15:03:17.650Z,8.33
2018-08-30T15:06:23.018Z,9.83
2018-08-30T15:09:28.417Z,8.00
2018-08-30T15:12:33.892Z,10.23
2018-08-30T15:15:39.386Z,8.33
2018-08-30T15:18:44.824Z,8.40
2018-08-30T15:21:50.190Z,11.03
2018-08-30T15:24:56.116Z,8.70
2018-08-30T15:28:01.499Z,7.53
2018-08-30T15:31:07.029Z,10.67
2018-08-30T15:34:12.418Z,8.17
2018-08-30T15:37:17.784Z,9.43
2018-08-30T15:40:23.206Z,7.47
2018-08-30T15:43:28.831Z,8.93
2018-08-30T15:46:34.219Z,10.23
2018-08-30T15:49:39.627Z,9.70
2018-08-30T15:52:45.125Z,10.57
2018-08-30T15:55:50.730Z,10.73
2018-08-30T15:58:56.636Z,3.43
2018-08-30T16:02:02.043Z,5.50
2018-08-30T16:05:08.115Z,11.37
2018-08-30T16:08:14.018Z,8.17
2018-08-30T16:11:19.406Z,8.10
2018-08-30T16:14:25.031Z,5.70
2018-08-30T16:17:30.585Z,6.73
2018-08-30T16:20:36.280Z,6.53
2018-08-30T16:23:41.685Z,6.27
2018-08-30T16:26:47.109Z,8.80
2018-08-30T16:29:52.741Z,8.63
2018-08-30T16:33:00.466Z,8.97
2018-08-30T16:36:05.897Z,6.53
2018-08-30T16:39:12.238Z,8.80
2018-08-30T16:42:17.585Z,5.87
2018-08-30T16:45:22.961Z,5.37
2018-08-30T16:48:28.873Z,4.20
2018-08-30T16:51:34.270Z,7.07
2018-08-30T16:54:40.120Z,3.63
2018-08-30T16:57:45.579Z,5.83
2018-08-30T17:00:51.328Z,6.13
2018-08-30T17:03:56.935Z,3.43
2018-08-30T17:07:02.542Z,4.97
2018-08-30T17:10:08.002Z,5.73
2018-08-30T17:13:13.360Z,7.50
2018-08-30T17:16:18.727Z,5.43
2018-08-30T17:19:30.909Z,4.83
2018-08-30T17:22:36.361Z,7.70
2018-08-30T17:25:42.988Z,6.93
2018-08-30T17:28:48.697Z,5.43
2018-08-30T17:31:54.442Z,6.07
2018-08-30T17:34:59.833Z,7.63
2018-08-30T17:38:05.242Z,8.63
2018-08-30T17:41:10.650Z,7.57
2018-08-30T17:44:16.001Z,7.20
2018-08-30T17:47:21.380Z,6.57
2018-08-30T17:50:26.841Z,5.77
2018-08-30T17:53:32.369Z,7.43
2018-08-30T17:56:37.945Z,8.90
2018-08-30T17:59:43.612Z,9.40
2018-08-30T18:02:49.014Z,6.70
2018-08-30T18:05:54.386Z,8.80
2018-08-30T18:08:59.746Z,6.90
2018-08-30T18:12:05.393Z,6.80
2018-08-30T18:15:13.894Z,8.97
2018-08-30T18:18:19.861Z,7.50
2018-08-30T18:21:25.486Z,5.60
2018-08-30T18:24:30.938Z,7.37
2018-08-30T18:27:36.353Z,5.07
2018-08-30T18:30:41.814Z,7.60
2018-08-30T18:33:47.571Z,7.33
2018-08-30T18:36:52.941Z,5.97
2018-08-30T18:39:58.335Z,5.47
2018-08-30T18:43:03.715Z,6.67
2018-08-30T18:46:09.167Z,4.80
2018-08-30T18:49:14.609Z,8.40
2018-08-30T18:52:20.088Z,7.53
2018-08-30T18:55:25.483Z,8.73
2018-08-30T18:58:30.862Z,9.00
2018-08-30T19:01:36.502Z,7.63
2018-08-30T19:04:41.925Z,6.27
2018-08-30T19:07:47.906Z,5.17
2018-08-30T19:10:53.442Z,5.47
2018-08-30T19:13:58.822Z,4.53
2018-08-30T19:17:09.414Z,7.87
2018-08-30T19:20:14.798Z,9.63
2018-08-30T19:23:20.215Z,7.40
2018-08-30T19:26:25.605Z,5.33
2018-08-30T19:29:35.099Z,7.30
2018-08-30T19:32:40.579Z,5.03
2018-08-30T19:35:51.146Z,5.77
2018-08-30T19:38:56.882Z,7.43
2018-08-30T19:42:02.284Z,7.40
2018-08-30T19:45:07.693Z,5.50
2018-08-30T19:48:13.146Z,6.53
2018-08-30T19:51:18.630Z,7.60
2018-08-30T19:54:25.339Z,6.80
2018-08-30T19:57:43.463Z,4.97
2018-08-30T20:00:48.954Z,7.90
2018-08-30T20:03:54.343Z,5.93
2018-08-30T20:06:59.709Z,6.00
2018-08-30T20:10:05.557Z,8.10
2018-08-30T20:13:10.937Z,8.60
2018-08-30T20:16:16.272Z,5.53
2018-08-30T20:19:21.671Z,7.33
2018-08-30T20:22:27.112Z,6.03
2018-08-30T20:25:32.452Z,4.60
2018-08-30T20:28:37.813Z,4.80
2018-08-30T20:31:43.261Z,9.70
2018-08-30T20:34:48.606Z,5.07
2018-08-30T20:37:56.114Z,6.27
2018-08-30T20:41:01.538Z,9.30
2018-08-30T20:44:07.138Z,7.97
2018-08-30T20:47:12.513Z,5.87
2018-08-30T20:50:17.985Z,10.17
2018-08-30T20:53:23.891Z,9.07
2018-08-30T20:56:29.453Z,6.17
2018-08-30T20:59:35.006Z,6.17
2018-08-30T21:02:40.654Z,3.93
2018-08-30T21:05:45.993Z,4.30
2018-08-30T21:08:51.481Z,10.63
2018-08-30T21:11:56.950Z,7.40
2018-08-30T21:15:02.330Z,7.73
2018-08-30T21:18:09.102Z,4.33
2018-08-30T21:21:16.569Z,5.83
2018-08-30T21:24:24.217Z,2.90
2018-08-30T21:27:31.001Z,6.83
2018-08-30T21:30:37.866Z,4.97
2018-08-30T21:33:47.484Z,8.33
2018-08-30T21:36:52.882Z,7.97
2018-08-30T21:39:58.299Z,6.47
2018-08-30T21:43:05.471Z,4.70
2018-08-30T21:46:15.015Z,7.13
2018-08-30T21:49:24.509Z,8.67
2018-08-30T21:52:32.760Z,3.87
2018-08-30T21:55:41.845Z,7.50
2018-08-30T21:58:48.208Z,4.73
2018-08-30T22:01:55.022Z,4.23
2018-08-30T22:05:03.894Z,4.73
2018-08-30T22:08:23.732Z,7.60
2018-08-30T22:11:33.140Z,4.50
2018-08-30T22:14:39.984Z,7.07
2018-08-30T22:17:46.894Z,6.17
2018-08-30T22:20:57.653Z,6.63
2018-08-30T22:24:05.032Z,5.30
2018-08-30T22:27:13.824Z,7.43
2018-08-30T22:30:20.473Z,6.67
2018-08-30T22:33:29.444Z,4.00
2018-08-30T22:36:36.529Z,6.87
2018-08-30T22:39:43.303Z,6.03
2018-08-30T22:43:02.844Z,7.33
2018-08-30T22:46:09.738Z,8.50
2018-08-30T22:49:19.915Z,7.30
2018-08-30T22:52:28.391Z,3.50
2018-08-30T22:55:48.395Z,6.00
2018-08-30T22:58:58.742Z,3.80
2018-08-30T23:02:08.879Z,4.87
2018-08-30T23:05:15.126Z,7.20
2018-08-30T23:08:20.554Z,4.73
2018-08-30T23:11:25.926Z,6.63
2018-08-30T23:14:31.282Z,4.33
2018-08-30T23:17:36.597Z,4.67
2018-08-30T23:20:42.010Z,4.93
2018-08-30T23:23:47.410Z,3.93
2018-08-30T23:26:52.778Z,7.07
2018-08-30T23:29:58.266Z,6.27
2018-08-30T23:33:03.609Z,5.00
2018-08-30T23:36:09.006Z,7.63
2018-08-30T23:39:14.493Z,6.03
2018-08-30T23:42:19.841Z,6.43
2018-08-30T23:45:25.214Z,5.93
2018-08-30T23:48:30.549Z,5.97
2018-08-30T23:51:35.974Z,6.80
2018-08-30T23:54:41.365Z,5.23
2018-08-30T23:58:03.586Z,5.20
